Time;durP1;ratioP1;P1;durP2;ratioP2;P2;SDS_P1;SDS_P2;PMS_P1;PMS_P2;Temp;Humidity;BMP_temperature;BMP_pressure;BME280_temperature;BME280_humidity;BME280_pressure;Samples;Min_cycle;Max_cycle;Signal;HPM_P1;HPM_P2
2021/12/24 00:01:22;;;;;;;341.15;246.35;;;;;;;24.41;36.90;100614.69;5006544;28;20155;-43
2021/12/24 00:03:50;;;;;;;345.38;248.88;;;;;;;24.38;36.72;100601.59;5006583;28;20502;-44
2021/12/24 00:06:19;;;;;;;342.30;246.00;;;;;;;24.31;37.11;100599.78;5006399;28;20033;-44
2021/12/24 00:08:47;;;;;;;341.63;249.70;;;;;;;24.28;37.14;100613.75;5006354;28;20034;-44
2021/12/24 00:11:16;;;;;;;360.65;252.20;;;;;;;24.34;36.94;100605.91;5006308;28;20037;-43
2021/12/24 00:13:48;;;;;;;353.48;250.25;;;;;;;24.33;37.21;100606.78;5006172;28;20022;-44
2021/12/24 00:16:35;;;;;;;347.70;250.27;;;;;;;24.42;37.10;100598.09;5005876;28;20033;-43
2021/12/24 00:19:38;;;;;;;349.58;250.77;;;;;;;24.38;37.13;100596.34;5004572;28;20026;-43
2021/12/24 00:35:40;;;;;;;360.33;261.08;;;;;;;24.33;37.37;100587.56;5001242;28;20049;-43
2021/12/24 00:38:11;;;;;;;352.15;261.77;;;;;;;24.19;37.55;100598.84;5005724;28;20380;-44
2021/12/24 00:40:45;;;;;;;359.17;261.75;;;;;;;24.20;37.72;100595.38;5004024;28;20065;-44
2021/12/24 00:43:15;;;;;;;350.95;260.65;;;;;;;24.42;36.90;100595.47;5005635;28;20026;-44
2021/12/24 00:45:46;;;;;;;353.35;260.65;;;;;;;24.26;37.20;100589.28;5004160;28;20041;-43
2021/12/24 00:48:15;;;;;;;349.48;257.75;;;;;;;24.13;37.38;100596.19;5004835;28;20088;-44
2021/12/24 00:51:19;;;;;;;353.08;253.77;;;;;;;24.21;37.56;100588.38;5005463;28;20464;-44
2021/12/24 00:56:09;;;;;;;360.80;263.33;;;;;;;24.18;37.50;100580.47;5004997;28;20030;-44
2021/12/24 00:58:37;;;;;;;359.13;264.88;;;;;;;24.30;37.10;100583.19;5005371;28;20539;-44
2021/12/24 01:01:07;;;;;;;358.45;262.17;;;;;;;24.31;37.04;100578.81;5005130;28;20108;-44
2021/12/24 01:03:36;;;;;;;367.63;266.42;;;;;;;24.20;37.39;100573.50;5003976;28;20030;-44
2021/12/24 01:06:05;;;;;;;376.05;269.05;;;;;;;24.05;37.81;100569.94;5003671;28;20045;-44
2021/12/24 01:08:34;;;;;;;374.58;273.10;;;;;;;24.10;37.91;100562.09;5005302;28;20057;-44
2021/12/24 01:11:06;;;;;;;369.02;266.15;;;;;;;24.06;37.96;100561.19;5004954;28;20048;-45
2021/12/24 01:13:35;;;;;;;369.42;264.65;;;;;;;24.05;37.94;100555.97;5005313;28;20033;-44
2021/12/24 01:16:15;;;;;;;355.05;265.02;;;;;;;24.08;37.55;100551.63;5004970;28;20036;-42
2021/12/24 01:21:29;;;;;;;377.45;272.20;;;;;;;24.07;37.82;100547.22;5005041;28;20379;-43
2021/12/24 01:24:03;;;;;;;364.17;269.15;;;;;;;24.07;38.14;100552.47;5004153;28;20414;-43
2021/12/24 01:26:50;;;;;;;369.55;272.00;;;;;;;24.03;38.24;100541.97;5004763;28;20034;-44
2021/12/24 01:29:39;;;;;;;385.92;280.25;;;;;;;24.11;37.75;100538.53;5004255;28;20165;-43
2021/12/24 01:38:11;;;;;;;381.45;277.52;;;;;;;24.21;37.75;100522.84;5001293;28;20488;-43
2021/12/24 01:42:39;;;;;;;375.85;277.38;;;;;;;24.17;37.64;100513.19;4986481;28;20042;-43
2021/12/24 01:43:17;;;;;;;368.38;271.50;;;;;;;24.10;37.73;100520.16;5004004;28;20518;-43
2021/12/24 01:45:49;;;;;;;369.55;270.77;;;;;;;23.99;38.08;100511.38;5004608;28;20119;-43
2021/12/24 01:48:20;;;;;;;378.67;277.45;;;;;;;24.02;38.43;100516.63;5004638;28;20026;-44
2021/12/24 01:50:49;;;;;;;380.20;274.40;;;;;;;24.07;37.95;100515.78;5004194;28;20068;-43
2021/12/24 01:53:20;;;;;;;371.02;272.10;;;;;;;24.03;37.90;100511.41;5004274;28;20038;-43
2021/12/24 01:55:52;;;;;;;368.70;272.17;;;;;;;24.04;38.20;100518.38;5004404;28;20372;-44
2021/12/24 01:58:25;;;;;;;362.52;271.63;;;;;;;24.03;37.90;100510.53;5019450;28;20472;-43
2021/12/24 02:00:57;;;;;;;369.25;270.30;;;;;;;24.00;38.27;100510.50;5004125;28;20108;-44
2021/12/24 02:03:25;;;;;;;366.48;276.83;;;;;;;24.11;38.28;100512.31;5002658;28;20033;-44
2021/12/24 02:05:54;;;;;;;383.52;277.58;;;;;;;24.08;37.95;100506.16;5003760;28;20026;-43
2021/12/24 02:08:22;;;;;;;368.88;273.10;;;;;;;24.18;37.73;100492.25;5003967;28;20033;-44
2021/12/24 02:10:52;;;;;;;376.15;273.67;;;;;;;24.15;38.21;100488.75;5004301;28;20084;-44
2021/12/24 02:13:21;;;;;;;387.13;274.58;;;;;;;24.11;37.99;100493.09;5002533;28;20034;-43
2021/12/24 02:16:07;;;;;;;382.55;281.73;;;;;;;23.94;38.41;100487.75;5003795;28;20073;-43
2021/12/24 02:29:40;;;;;;;379.35;278.55;;;;;;;24.11;38.22;100467.78;4999968;28;20502;-43
2021/12/24 02:32:09;;;;;;;385.98;278.35;;;;;;;24.08;38.08;100475.63;5003874;28;20061;-44
2021/12/24 02:34:38;;;;;;;373.00;276.63;;;;;;;24.22;37.72;100478.31;5003727;28;20112;-44
2021/12/24 02:37:06;;;;;;;379.98;279.10;;;;;;;24.16;37.92;100466.94;5003990;28;20395;-43
2021/12/24 02:39:35;;;;;;;385.65;281.55;;;;;;;24.07;38.60;100468.63;5003973;28;20029;-44
2021/12/24 02:42:23;;;;;;;396.80;285.10;;;;;;;23.98;38.27;100473.84;5001615;28;20045;-44
2021/12/24 02:44:58;;;;;;;376.80;282.20;;;;;;;23.94;38.29;100456.31;5003310;28;20032;-44
2021/12/24 02:47:42;;;;;;;383.85;285.20;;;;;;;23.96;38.71;100452.84;5003789;28;20041;-43
2021/12/24 02:55:37;;;;;;;385.38;286.98;;;;;;;23.93;38.83;100459.78;4999180;28;20480;-43
2021/12/24 02:58:06;;;;;;;393.02;288.48;;;;;;;23.95;38.66;100450.19;5003371;28;20092;-43
2021/12/24 03:00:35;;;;;;;391.25;291.50;;;;;;;23.94;38.55;100448.44;5002562;28;20094;-42
2021/12/24 03:03:03;;;;;;;392.88;289.80;;;;;;;23.95;38.32;100447.59;5002203;28;20034;-43
2021/12/24 03:05:32;;;;;;;389.20;288.00;;;;;;;24.04;38.40;100452.88;5003610;28;20026;-43
2021/12/24 03:08:00;;;;;;;396.83;289.75;;;;;;;24.02;38.30;100443.28;5003425;28;20038;-43
2021/12/24 03:10:29;;;;;;;389.15;285.10;;;;;;;23.93;38.51;100436.22;5003376;28;21049;-42
2021/12/24 03:12:57;;;;;;;383.58;286.50;;;;;;;23.97;38.71;100438.03;5003500;28;20410;-43
2021/12/24 03:15:26;;;;;;;392.30;291.98;;;;;;;23.90;38.66;100438.81;5002987;28;20030;-43
2021/12/24 03:17:58;;;;;;;394.02;286.33;;;;;;;23.83;38.76;100437.91;5003684;28;20030;-43
2021/12/24 03:20:32;;;;;;;390.23;286.92;;;;;;;23.92;38.76;100432.69;5002988;28;20033;-43
2021/12/24 03:25:32;;;;;;;388.42;287.30;;;;;;;23.95;38.50;100431.88;5003366;28;20034;-44
2021/12/24 03:28:01;;;;;;;390.88;289.52;;;;;;;24.03;38.30;100419.69;5002180;28;20420;-43
2021/12/24 03:30:31;;;;;;;388.40;285.50;;;;;;;24.06;38.65;100413.59;5003136;28;20030;-43
2021/12/24 03:33:01;;;;;;;392.98;291.05;;;;;;;24.03;38.74;100409.22;5003164;28;20403;-43
2021/12/24 03:35:29;;;;;;;387.02;288.10;;;;;;;23.96;38.49;100410.94;5002854;28;20048;-43
2021/12/24 03:37:58;;;;;;;391.63;286.85;;;;;;;23.87;39.07;100407.34;5003244;28;20030;-43
2021/12/24 03:40:28;;;;;;;385.52;286.83;;;;;;;23.93;38.91;100407.41;5003121;28;20516;-44
2021/12/24 03:42:57;;;;;;;393.83;287.45;;;;;;;23.94;38.66;100398.66;5003154;28;20518;-42
2021/12/24 03:45:33;;;;;;;387.48;288.25;;;;;;;23.97;38.89;100402.19;5003193;28;20045;-44
2021/12/24 03:48:13;;;;;;;384.77;288.80;;;;;;;23.83;38.56;100375.03;5003425;28;20025;-43
2021/12/24 03:50:52;;;;;;;391.80;292.08;;;;;;;24.01;38.68;100389.97;5001762;28;20041;-43
2021/12/24 03:56:08;;;;;;;398.73;293.92;;;;;;;24.19;38.44;100398.78;4996910;28;20106;-45
2021/12/24 03:58:37;;;;;;;390.10;294.08;;;;;;;24.06;38.55;100383.03;5006871;28;20129;-44
2021/12/24 04:01:05;;;;;;;396.48;291.17;;;;;;;24.00;38.55;100369.03;5006251;28;20117;-43
2021/12/24 04:03:34;;;;;;;393.58;292.30;;;;;;;24.03;38.53;100375.16;5006501;28;20026;-44
2021/12/24 04:06:03;;;;;;;394.90;294.55;;;;;;;24.02;38.41;100373.41;5005889;28;20041;-43
2021/12/24 04:08:32;;;;;;;386.75;291.60;;;;;;;23.99;38.86;100368.16;5006644;28;20083;-43
2021/12/24 04:11:00;;;;;;;399.27;294.05;;;;;;;23.96;38.80;100371.63;5006393;28;20392;-44
2021/12/24 04:13:29;;;;;;;392.38;295.63;;;;;;;23.98;39.00;100376.91;5006410;28;20124;-43
2021/12/24 04:15:57;;;;;;;393.77;292.63;;;;;;;23.98;38.79;100390.00;5006241;28;20037;-43
2021/12/24 04:26:29;;;;;;;399.05;295.75;;;;;;;23.98;38.60;100366.41;5002254;28;20296;-43
2021/12/24 04:28:58;;;;;;;392.65;299.60;;;;;;;24.09;38.49;100361.19;5006069;28;20026;-43
2021/12/24 04:31:37;;;;;;;404.63;306.25;;;;;;;24.00;38.63;100354.16;5006143;28;20030;-43
2021/12/24 04:34:05;;;;;;;393.52;294.83;;;;;;;23.90;39.04;100354.97;5005860;28;20084;-43
2021/12/24 04:36:51;;;;;;;406.90;302.63;;;;;;;23.81;39.11;100347.97;5006077;28;20061;-43
2021/12/24 05:01:52;;;;;;;409.75;308.05;;;;;;;23.94;39.20;100341.91;5001297;28;20500;-43
2021/12/24 05:04:26;;;;;;;416.10;307.52;;;;;;;23.88;38.99;100336.66;5004541;28;20053;-44
2021/12/24 05:07:04;;;;;;;415.80;310.73;;;;;;;23.94;39.40;100335.81;5005426;28;20542;-43
2021/12/24 05:09:32;;;;;;;408.90;302.38;;;;;;;24.02;39.05;100325.38;5005287;28;20030;-44
2021/12/24 05:12:01;;;;;;;413.58;305.80;;;;;;;23.93;39.14;100329.66;5005280;28;20909;-43
2021/12/24 05:14:31;;;;;;;407.13;306.38;;;;;;;23.85;39.50;100320.94;5005209;28;20515;-43
2021/12/24 05:17:20;;;;;;;405.20;304.73;;;;;;;23.83;39.25;100312.19;5004915;28;20033;-43
2021/12/24 05:22:34;;;;;;;418.27;314.58;;;;;;;24.16;39.01;100310.56;5001437;28;20038;-43
2021/12/24 05:25:02;;;;;;;418.92;311.08;;;;;;;24.00;39.26;100309.63;5004813;28;20049;-43
2021/12/24 05:27:31;;;;;;;412.92;306.30;;;;;;;23.96;38.86;100310.47;5004964;28;20029;-44
2021/12/24 05:29:58;;;;;;;424.90;312.00;;;;;;;23.85;39.34;100299.97;5004003;28;20100;-43
2021/12/24 05:32:28;;;;;;;416.38;314.17;;;;;;;23.91;39.00;100309.59;5004485;28;20438;-44
2021/12/24 05:34:56;;;;;;;415.80;310.17;;;;;;;23.94;39.05;100314.84;5004766;28;20034;-43
2021/12/24 05:37:25;;;;;;;415.25;307.65;;;;;;;24.01;38.79;100319.25;5005007;28;20022;-44
2021/12/24 05:39:54;;;;;;;418.55;318.52;;;;;;;23.99;39.28;100307.91;5004702;28;20671;-44
2021/12/24 05:42:25;;;;;;;403.92;309.23;;;;;;;23.82;39.16;100299.94;5004881;28;20133;-43
2021/12/24 05:44:57;;;;;;;426.23;324.00;;;;;;;23.86;39.22;100308.69;5004908;28;20040;-43
2021/12/24 05:47:25;;;;;;;419.38;316.52;;;;;;;23.76;39.80;100298.19;5004948;28;20052;-44
2021/12/24 05:49:56;;;;;;;416.48;316.08;;;;;;;23.89;39.59;100296.50;5004653;28;20034;-43
2021/12/24 05:52:25;;;;;;;419.45;314.08;;;;;;;23.85;39.55;100304.31;5004828;28;20150;-43
2021/12/24 05:54:54;;;;;;;411.33;315.10;;;;;;;23.87;39.11;100299.97;5003339;28;20026;-43
2021/12/24 05:57:23;;;;;;;418.15;314.73;;;;;;;23.94;39.19;100293.88;5004519;28;20025;-43
2021/12/24 05:59:52;;;;;;;429.60;320.40;;;;;;;24.05;39.08;100291.31;5004186;28;20109;-43
2021/12/24 06:02:20;;;;;;;423.58;319.90;;;;;;;24.12;38.93;100285.22;5004369;28;20034;-43
2021/12/24 06:04:49;;;;;;;426.73;325.42;;;;;;;24.11;38.71;100286.06;5003758;28;20034;-44
2021/12/24 06:07:18;;;;;;;424.38;318.00;;;;;;;24.01;39.06;100279.94;5004168;28;20037;-43
2021/12/24 06:09:46;;;;;;;422.27;322.42;;;;;;;23.96;39.28;100292.16;5004365;28;20033;-44
2021/12/24 06:12:16;;;;;;;419.30;323.05;;;;;;;23.91;39.45;100284.25;5004467;28;20117;-43
2021/12/24 06:14:53;;;;;;;427.58;326.42;;;;;;;24.02;39.38;100281.69;5004099;28;20499;-43
2021/12/24 06:17:23;;;;;;;416.83;320.92;;;;;;;24.06;39.13;100277.34;5003704;28;20049;-44
2021/12/24 06:19:52;;;;;;;425.02;319.95;;;;;;;23.90;39.30;100265.94;5004360;28;20080;-44
2021/12/24 06:22:21;;;;;;;417.52;317.75;;;;;;;23.88;39.62;100260.69;5004005;28;20508;-43
2021/12/24 06:24:51;;;;;;;416.05;313.33;;;;;;;23.95;39.25;100256.34;5003622;28;20033;-43
2021/12/24 06:27:19;;;;;;;432.48;321.52;;;;;;;24.00;39.06;100264.22;5004087;28;20401;-43
2021/12/24 06:29:53;;;;;;;412.42;308.92;;;;;;;24.07;39.09;100255.53;5003835;28;20053;-43
2021/12/24 06:32:21;;;;;;;415.95;312.40;;;;;;;24.04;38.92;100258.13;5003913;28;20030;-42
2021/12/24 06:34:50;;;;;;;412.38;310.38;;;;;;;23.92;39.39;100259.81;5002220;28;21186;-44
2021/12/24 06:37:18;;;;;;;399.35;296.42;;;;;;;23.85;39.31;100265.91;5004072;28;20483;-43
2021/12/24 06:39:48;;;;;;;400.70;299.58;;;;;;;23.75;39.47;100253.66;5003942;28;20503;-45
2021/12/24 06:42:16;;;;;;;399.27;292.55;;;;;;;23.73;39.66;100258.03;5004146;28;20092;-44
2021/12/24 06:44:45;;;;;;;397.48;294.52;;;;;;;23.83;39.46;100260.66;5003664;28;20092;-44
2021/12/24 06:47:14;;;;;;;394.83;287.77;;;;;;;23.86;39.15;100261.53;5003975;28;20289;-43
2021/12/24 06:49:43;;;;;;;395.88;288.50;;;;;;;23.84;39.67;100261.56;5003460;28;20040;-44
2021/12/24 06:52:11;;;;;;;381.35;284.85;;;;;;;23.86;39.36;100261.53;5002267;28;20026;-44
2021/12/24 06:54:41;;;;;;;393.52;285.33;;;;;;;23.81;39.19;100251.06;5003544;28;20118;-44
2021/12/24 06:57:15;;;;;;;365.55;263.83;;;;;;;24.03;39.19;100262.47;5003774;28;20038;-43
2021/12/24 06:59:43;;;;;;;356.90;257.02;;;;;;;24.11;38.71;100268.63;5003758;28;20030;-45
2021/12/24 07:02:11;;;;;;;355.05;256.42;;;;;;;24.00;39.23;100256.38;5001832;28;20050;-43
2021/12/24 07:04:40;;;;;;;365.98;262.25;;;;;;;23.93;39.03;100261.56;5003693;28;20155;-43
2021/12/24 07:07:09;;;;;;;357.33;258.40;;;;;;;23.80;39.60;100255.44;5003864;28;20109;-43
2021/12/24 07:09:42;;;;;;;356.33;256.35;;;;;;;23.80;39.31;100247.59;5003693;28;20105;-43
2021/12/24 07:12:12;;;;;;;364.17;263.73;;;;;;;23.86;39.57;100237.97;5003637;28;20611;-43
2021/12/24 07:14:42;;;;;;;371.70;265.40;;;;;;;23.76;39.91;100231.81;5002162;28;20113;-43
2021/12/24 07:17:12;;;;;;;361.17;258.88;;;;;;;23.73;39.37;100232.72;5003650;28;20243;-43
2021/12/24 07:19:40;;;;;;;340.27;253.13;;;;;;;23.78;39.64;100227.47;5003843;28;20105;-43
2021/12/24 07:22:09;;;;;;;355.90;261.25;;;;;;;23.85;39.66;100229.25;5003642;28;20030;-43
2021/12/24 07:24:38;;;;;;;356.92;255.00;;;;;;;23.92;39.31;100211.78;5003641;28;20084;-44
2021/12/24 07:27:07;;;;;;;361.17;259.70;;;;;;;24.07;39.00;100206.59;5002063;28;20223;-44
2021/12/24 07:29:36;;;;;;;351.30;253.88;;;;;;;23.96;39.56;100201.34;5006718;28;20423;-43
2021/12/24 07:32:05;;;;;;;356.08;252.23;;;;;;;23.90;39.53;100197.81;5006816;28;20030;-44
2021/12/24 07:34:34;;;;;;;371.38;262.88;;;;;;;23.94;39.68;100189.09;5005274;28;20048;-44
2021/12/24 07:37:03;;;;;;;367.50;254.00;;;;;;;23.93;39.68;100188.22;5007115;28;20116;-44
2021/12/24 07:39:31;;;;;;;361.17;253.73;;;;;;;23.87;39.68;100184.72;5007143;28;20037;-43
2021/12/24 07:42:00;;;;;;;349.08;250.90;;;;;;;23.93;39.41;100185.59;5006711;28;20030;-44
2021/12/24 07:44:30;;;;;;;348.90;248.10;;;;;;;23.93;39.42;100187.34;5005764;28;20034;-44
2021/12/24 07:47:01;;;;;;;362.45;254.18;;;;;;;23.95;39.62;100183.00;5006834;28;20030;-43
2021/12/24 07:49:30;;;;;;;346.75;244.48;;;;;;;24.07;39.33;100175.16;5005820;28;20515;-43
2021/12/24 07:54:29;;;;;;;330.30;241.55;;;;;;;23.92;39.36;100180.34;5006680;28;20030;-44
2021/12/24 07:56:58;;;;;;;345.15;241.90;;;;;;;23.93;39.45;100177.72;5006289;28;20049;-44
2021/12/24 07:59:27;;;;;;;338.38;244.70;;;;;;;23.90;39.58;100174.25;5005433;28;20207;-44
2021/12/24 08:01:56;;;;;;;336.85;240.73;;;;;;;23.92;39.63;100173.34;5005881;28;20088;-45
2021/12/24 08:04:26;;;;;;;342.98;242.57;;;;;;;23.86;39.90;100168.13;5006125;28;20034;-44
2021/12/24 08:06:54;;;;;;;328.30;234.60;;;;;;;23.90;39.38;100169.00;5005941;28;20119;-44
2021/12/24 08:09:22;;;;;;;335.73;235.55;;;;;;;23.95;39.34;100164.66;5007853;28;20076;-44
2021/12/24 08:11:50;;;;;;;325.00;231.98;;;;;;;23.93;39.29;100169.00;5006259;28;20060;-44
2021/12/24 08:14:18;;;;;;;317.45;225.57;;;;;;;23.95;39.68;100168.13;5006077;28;20041;-44
2021/12/24 08:16:47;;;;;;;308.73;229.10;;;;;;;23.96;39.39;100171.63;5006143;28;20479;-45
2021/12/24 08:19:17;;;;;;;326.85;231.90;;;;;;;23.94;39.36;100162.91;5006281;28;20088;-43
2021/12/24 08:21:46;;;;;;;328.23;229.10;;;;;;;23.94;39.52;100168.13;5006330;28;20137;-44
2021/12/24 08:24:14;;;;;;;333.50;235.48;;;;;;;23.94;39.63;100162.91;5006310;28;20033;-44
2021/12/24 08:26:43;;;;;;;335.17;231.10;;;;;;;23.94;39.42;100157.66;5006181;28;20036;-44
2021/12/24 08:29:12;;;;;;;330.90;237.55;;;;;;;23.97;39.71;100155.09;5004789;28;20124;-44
2021/12/24 08:31:40;;;;;;;342.77;241.45;;;;;;;24.05;39.42;100152.47;5004659;28;20038;-44
2021/12/24 08:34:10;;;;;;;337.95;239.38;;;;;;;24.04;39.62;100156.81;5005861;28;20037;-44
2021/12/24 08:36:39;;;;;;;326.50;240.48;;;;;;;23.96;39.94;100159.44;5005698;28;20038;-44
2021/12/24 08:39:08;;;;;;;341.45;242.88;;;;;;;23.98;39.92;100156.84;5003258;28;20037;-44
2021/12/24 08:41:36;;;;;;;330.67;241.43;;;;;;;24.12;39.42;100152.47;5005659;28;20128;-44
2021/12/24 08:44:05;;;;;;;338.30;243.48;;;;;;;24.07;39.33;100148.97;5004554;28;20034;-43
2021/12/24 08:46:34;;;;;;;343.02;240.55;;;;;;;24.00;39.98;100157.69;5005935;28;20037;-43
2021/12/24 08:49:03;;;;;;;348.13;247.60;;;;;;;24.10;39.33;100163.78;5005544;28;20077;-44
2021/12/24 08:51:32;;;;;;;341.50;245.23;;;;;;;24.18;39.47;100155.94;5005539;28;20058;-44
2021/12/24 08:54:00;;;;;;;332.30;237.45;;;;;;;24.11;39.22;100163.81;5006641;28;20030;-43
2021/12/24 08:56:29;;;;;;;330.40;232.40;;;;;;;24.07;39.54;100164.69;5008145;28;20558;-44
2021/12/24 08:58:58;;;;;;;341.52;237.73;;;;;;;24.09;39.28;100164.66;5005740;28;20127;-43
2021/12/24 09:01:26;;;;;;;339.73;240.10;;;;;;;24.04;39.54;100164.66;5006081;28;20054;-43
2021/12/24 09:03:55;;;;;;;333.35;238.98;;;;;;;24.20;39.53;100160.31;5005600;28;20152;-43
2021/12/24 09:06:25;;;;;;;327.05;238.43;;;;;;;24.19;39.36;100155.94;5005442;28;20083;-46
2021/12/24 09:08:53;;;;;;;330.17;235.20;;;;;;;24.24;39.62;100153.31;5005288;28;20176;-44
2021/12/24 09:11:21;;;;;;;329.52;236.85;;;;;;;24.23;39.38;100151.56;5004986;28;20033;-45
2021/12/24 09:13:49;;;;;;;322.98;227.30;;;;;;;24.08;39.75;100145.47;5005419;28;20033;-43
2021/12/24 09:16:16;;;;;;;318.98;228.68;;;;;;;24.09;40.05;100156.81;5005792;28;20092;-44
2021/12/24 09:18:45;;;;;;;317.27;225.25;;;;;;;24.10;39.93;100154.19;5004840;28;20458;-45
2021/12/24 09:21:16;;;;;;;321.35;230.35;;;;;;;24.08;39.86;100150.72;5005290;28;20026;-43
2021/12/24 09:23:47;;;;;;;318.30;226.48;;;;;;;24.18;39.68;100140.19;5005074;28;20040;-43
2021/12/24 09:26:15;;;;;;;320.65;225.30;;;;;;;24.17;39.49;100148.94;5003906;28;20540;-42
2021/12/24 09:28:44;;;;;;;305.80;221.25;;;;;;;24.21;39.79;100150.69;5005369;28;20452;-43
2021/12/24 09:31:12;;;;;;;320.65;229.60;;;;;;;24.21;39.73;100148.97;5004709;28;20034;-43
2021/12/24 09:33:41;;;;;;;318.00;226.35;;;;;;;24.15;39.77;100142.84;5004965;28;21221;-44
2021/12/24 09:36:09;;;;;;;318.20;227.27;;;;;;;24.10;40.10;100143.72;5003502;28;20037;-43
2021/12/24 09:38:38;;;;;;;322.45;230.10;;;;;;;24.12;39.93;100152.47;5004903;28;20034;-43
2021/12/24 09:41:06;;;;;;;332.02;229.13;;;;;;;24.08;40.32;100153.31;5003515;28;20476;-44
2021/12/24 09:43:35;;;;;;;317.88;226.93;;;;;;;24.05;40.41;100157.69;5007116;28;20030;-45
2021/12/24 09:46:03;;;;;;;323.02;230.32;;;;;;;24.09;40.07;100156.81;5004412;28;20573;-44
2021/12/24 09:48:32;;;;;;;314.75;225.90;;;;;;;24.11;40.13;100155.94;5004150;28;20037;-45
2021/12/24 09:51:00;;;;;;;326.10;231.70;;;;;;;24.10;40.07;100159.44;5004276;28;20029;-45
2021/12/24 09:53:28;;;;;;;329.95;232.75;;;;;;;24.09;39.87;100146.31;5004374;28;20033;-44
2021/12/24 09:55:57;;;;;;;340.10;234.88;;;;;;;24.07;40.53;100151.56;5004352;28;20037;-44
2021/12/24 09:58:26;;;;;;;325.77;227.68;;;;;;;24.16;39.90;100152.47;5004620;28;20030;-45
2021/12/24 10:00:54;;;;;;;336.80;241.32;;;;;;;24.20;40.21;100144.59;5004316;28;20511;-45
2021/12/24 10:03:41;;;;;;;341.05;240.05;;;;;;;24.10;40.13;100158.56;5004393;28;20212;-44
2021/12/24 10:06:10;;;;;;;337.92;242.57;;;;;;;24.17;40.17;100164.66;5004295;28;20037;-46
2021/12/24 10:08:38;;;;;;;335.10;227.85;;;;;;;24.16;40.38;100153.31;5004233;28;20044;-45
2021/12/24 10:11:11;;;;;;;336.00;240.23;;;;;;;24.07;40.75;100148.97;5002983;28;20034;-45
2021/12/24 10:13:43;;;;;;;336.15;238.48;;;;;;;24.07;40.93;100148.97;5004419;28;20564;-44
2021/12/24 10:16:15;;;;;;;331.38;235.23;;;;;;;23.98;40.99;100148.97;5002345;28;20047;-45
2021/12/24 10:18:45;;;;;;;340.75;234.98;;;;;;;24.09;40.58;100147.22;5004025;28;20068;-45
2021/12/24 10:21:15;;;;;;;344.17;239.32;;;;;;;24.10;40.33;100143.72;5003683;28;20410;-45
2021/12/24 10:23:47;;;;;;;334.35;239.77;;;;;;;24.23;39.99;100143.69;5004178;28;20103;-46
2021/12/24 10:26:19;;;;;;;342.75;233.98;;;;;;;24.24;40.36;100143.69;5004015;28;20053;-47
2021/12/24 10:28:52;;;;;;;343.25;241.05;;;;;;;24.16;40.07;100148.06;5003460;28;20026;-47
2021/12/24 10:31:22;;;;;;;338.70;239.77;;;;;;;24.18;40.38;100145.44;5004023;28;20479;-46
2021/12/24 10:34:12;;;;;;;329.35;235.75;;;;;;;24.17;40.47;100141.06;5002643;28;20041;-46
2021/12/24 10:37:09;;;;;;;344.10;238.50;;;;;;;24.33;40.25;100155.06;5003552;28;20095;-46
2021/12/24 10:39:40;;;;;;;342.42;240.10;;;;;;;24.26;40.16;100136.69;5003786;28;20033;-45
2021/12/24 10:42:12;;;;;;;345.88;242.73;;;;;;;24.17;40.10;100135.84;5003601;28;20133;-46
2021/12/24 10:44:42;;;;;;;332.63;237.23;;;;;;;24.19;40.36;100128.84;5003861;28;20034;-45
2021/12/24 10:47:12;;;;;;;332.17;237.13;;;;;;;24.22;40.40;100127.13;5003876;28;20037;-46
2021/12/24 10:50:38;;;;;;;345.13;240.95;;;;;;;24.18;40.32;100138.47;5003718;28;20109;-47
2021/12/24 10:53:10;;;;;;;339.40;241.98;;;;;;;24.14;40.59;100130.63;5000409;28;20077;-45
2021/12/24 10:55:50;;;;;;;332.58;239.57;;;;;;;24.12;40.36;100136.75;5003581;28;20030;-45
2021/12/24 10:58:20;;;;;;;334.33;238.05;;;;;;;24.16;40.63;100139.38;5003488;28;20033;-45
2021/12/24 11:00:54;;;;;;;340.88;241.07;;;;;;;24.17;40.52;100139.34;5003223;28;20145;-45
2021/12/24 11:03:26;;;;;;;329.65;233.68;;;;;;;24.16;40.32;100139.38;5005149;28;20125;-46
2021/12/24 11:06:15;;;;;;;337.92;240.32;;;;;;;24.25;40.41;100134.94;5007564;28;20851;-47
2021/12/24 11:08:44;;;;;;;336.33;235.75;;;;;;;24.13;40.33;100132.34;5007972;28;20037;-45
2021/12/24 11:11:17;;;;;;;342.88;242.35;;;;;;;24.14;40.42;100131.47;5007116;28;20435;-46
2021/12/24 11:13:48;;;;;;;338.90;240.40;;;;;;;24.10;40.61;100109.66;5007599;28;20056;-45
2021/12/24 11:16:20;;;;;;;345.95;241.93;;;;;;;24.14;40.35;100115.75;5007343;28;20030;-46
2021/12/24 11:18:57;;;;;;;335.65;243.02;;;;;;;24.22;40.20;100121.00;5006262;28;20026;-44
2021/12/24 11:21:27;;;;;;;334.52;230.85;;;;;;;24.23;40.16;100114.88;5007240;28;20096;-44
2021/12/24 11:23:56;;;;;;;329.02;225.18;;;;;;;24.16;40.32;100111.38;5007325;28;20894;-44
2021/12/24 11:26:27;;;;;;;308.63;222.95;;;;;;;24.12;40.28;100104.41;5007388;28;20025;-45
2021/12/24 11:28:55;;;;;;;312.10;219.98;;;;;;;24.18;40.37;100104.41;5007356;28;20063;-44
2021/12/24 11:31:27;;;;;;;314.23;221.35;;;;;;;24.16;39.99;100107.91;4989689;28;20026;-44
2021/12/24 11:33:58;;;;;;;327.20;223.52;;;;;;;24.13;40.02;100095.66;5006871;28;20050;-47
2021/12/24 11:36:30;;;;;;;310.13;218.43;;;;;;;24.11;40.45;100090.44;5006707;28;20030;-46
2021/12/24 11:39:01;;;;;;;294.33;213.48;;;;;;;24.16;40.20;100094.81;5022024;28;20030;-44
2021/12/24 11:41:31;;;;;;;310.20;222.02;;;;;;;24.16;40.16;100090.44;5007045;28;20025;-46
2021/12/24 11:44:05;;;;;;;327.65;225.52;;;;;;;24.25;40.04;100085.16;5010350;28;20088;-43
2021/12/24 11:46:37;;;;;;;311.73;218.57;;;;;;;24.31;40.13;100081.69;5006934;28;20022;-43
2021/12/24 11:49:07;;;;;;;307.45;212.55;;;;;;;24.24;39.66;100083.41;5007022;28;20748;-47
2021/12/24 11:51:40;;;;;;;309.05;210.80;;;;;;;24.20;39.98;100072.94;5006904;28;20117;-43
2021/12/24 11:54:11;;;;;;;301.02;209.07;;;;;;;24.20;39.64;100071.22;5006724;28;20041;-43
2021/12/24 11:56:53;;;;;;;301.45;207.45;;;;;;;24.20;39.92;100063.34;5006404;28;20393;-43
2021/12/24 11:59:41;;;;;;;294.20;207.07;;;;;;;24.23;39.86;100057.22;5006685;28;20030;-43
2021/12/24 12:02:09;;;;;;;294.48;210.73;;;;;;;24.24;39.65;100061.59;5006367;28;20042;-44
2021/12/24 12:04:38;;;;;;;292.85;206.30;;;;;;;24.28;39.57;100058.09;5006083;28;20034;-44
2021/12/24 12:07:18;;;;;;;296.52;211.07;;;;;;;24.25;39.61;100063.34;5006647;28;20034;-43
2021/12/24 12:09:48;;;;;;;298.33;211.60;;;;;;;24.26;39.95;100055.44;5006560;28;20506;-44
2021/12/24 12:12:17;;;;;;;301.35;214.27;;;;;;;24.35;39.78;100051.94;5006532;28;20045;-44
2021/12/24 12:14:46;;;;;;;308.50;211.95;;;;;;;24.27;39.93;100040.63;5004707;28;20041;-44
2021/12/24 12:17:25;;;;;;;301.88;209.82;;;;;;;24.33;39.64;100043.19;5005942;28;20026;-44
2021/12/24 12:20:00;;;;;;;297.65;210.65;;;;;;;24.42;39.68;100037.94;5006391;28;20032;-44
2021/12/24 12:22:55;;;;;;;;;;;;;;;24.64;39.15;100031.72;5006615;28;20069;-45
2021/12/24 12:25:34;;;;;;;296.75;202.40;;;;;;;24.62;38.72;100030.88;5006230;28;19917;-43
2021/12/24 12:28:06;;;;;;;286.05;198.50;;;;;;;24.48;39.05;100029.19;5004805;28;20042;-43
2021/12/24 12:30:37;;;;;;;281.60;193.13;;;;;;;24.47;38.98;100029.19;5005700;28;20041;-43
2021/12/24 12:33:10;;;;;;;273.20;191.10;;;;;;;24.51;39.35;100030.91;5005638;28;20394;-43
2021/12/24 12:35:49;;;;;;;279.15;191.65;;;;;;;24.39;39.21;100021.38;5005731;28;20031;-44